Denver, Colorado
Current Conditions -  °F | °C
As of 2:58 AM on Saturday 25 Oct 2014 (Local Time) from KBKF Reporting Station
Clear Clear  
Wind Chill: 53°   Ceiling: Unl
Heat Index: 53°   Visibility: 10mi
Dew Point: 23°   Wind: 8mph
Humidity: 31%   Direction: 200°SSW
Pressure: 30.23"   Gusts: NA
Location:  39.74°N, 104.99°W
Report Text: KBKF 250858Z 20007KT 10SM CLR 12/M05 A3023 RMK AO2A SLP170 T01161049 58001
Loading
Personal Weather Stations






























Interactive Weather Map
Tropical Storm Tracking
New forecast layout! Learn more

10-Day Weather Forecast

Advertisements
Track Severe Weather on mobile